Time;durP1;ratioP1;P1;durP2;ratioP2;P2;SDS_P1;SDS_P2;PMS_P1;PMS_P2;Temp;Humidity;BMP_temperature;BMP_pressure;BME280_temperature;BME280_humidity;BME280_pressure;Samples;Min_cycle;Max_cycle;Signal;HPM_P1;HPM_P2
2021/11/18 00:00:52;;;;;;;36.25;18.20;;;;;;;5.96;100.00;101377.88;5022366;28;20115;-75
2021/11/18 00:03:21;;;;;;;32.90;16.55;;;;;;;5.84;100.00;101370.31;5008247;28;20408;-75
2021/11/18 00:05:51;;;;;;;45.33;17.98;;;;;;;5.89;100.00;101373.66;4996908;28;20491;-76
2021/11/18 00:08:18;;;;;;;37.75;16.67;;;;;;;5.85;100.00;101369.41;4987727;28;20056;-75
2021/11/18 00:10:55;;;;;;;38.17;18.75;;;;;;;5.86;100.00;101371.16;5009152;28;20049;-74
2021/11/18 00:13:26;;;;;;;40.92;17.70;;;;;;;5.83;100.00;101366.00;5020757;28;20053;-78
2021/11/18 00:15:54;;;;;;;42.05;18.88;;;;;;;5.83;100.00;101369.47;5009959;28;20057;-75
2021/11/18 00:18:26;;;;;;;42.67;16.52;;;;;;;5.91;100.00;101360.56;5026607;28;20128;-75
2021/11/18 00:21:02;;;;;;;39.90;16.85;;;;;;;5.91;100.00;101371.03;5008721;28;20049;-76
2021/11/18 00:23:33;;;;;;;34.63;18.17;;;;;;;5.89;100.00;101368.44;5005011;28;20050;-76
2021/11/18 00:26:01;;;;;;;51.42;18.13;;;;;;;5.85;100.00;101369.41;4998263;28;20049;-75
2021/11/18 00:28:33;;;;;;;41.35;19.00;;;;;;;5.92;100.00;101380.59;4998014;28;20064;-75
2021/11/18 00:31:01;;;;;;;39.55;17.00;;;;;;;5.89;100.00;101378.88;5045234;28;20064;-75
2021/11/18 00:33:30;;;;;;;40.03;17.35;;;;;;;5.90;100.00;101379.75;5006636;28;20050;-74
2021/11/18 00:35:58;;;;;;;42.47;18.40;;;;;;;5.86;100.00;101375.53;5016505;28;20137;-75
2021/11/18 00:38:25;;;;;;;36.20;17.98;;;;;;;5.86;100.00;101384.22;5011018;28;20056;-75
2021/11/18 00:40:54;;;;;;;36.53;16.58;;;;;;;5.75;100.00;101387.09;5039100;28;20057;-75
2021/11/18 00:43:23;;;;;;;38.25;15.68;;;;;;;5.81;100.00;101393.94;4995649;28;20047;-78
2021/11/18 00:45:53;;;;;;;41.85;16.67;;;;;;;5.84;100.00;101397.31;5002293;28;20511;-75
2021/11/18 00:48:21;;;;;;;44.80;16.67;;;;;;;5.81;100.00;101399.16;5016261;28;20053;-74
2021/11/18 00:51:06;;;;;;;35.22;16.25;;;;;;;5.63;100.00;101395.28;4978841;28;20073;-75
2021/11/18 00:53:44;;;;;;;29.65;15.98;;;;;;;5.68;100.00;101397.78;5016157;28;20091;-74
2021/11/18 00:56:12;;;;;;;35.80;16.42;;;;;;;5.63;100.00;101395.28;5016043;28;20067;-76
2021/11/18 00:58:39;;;;;;;37.45;15.80;;;;;;;5.61;100.00;101401.44;5002639;28;20045;-77
2021/11/18 01:01:07;;;;;;;37.22;16.80;;;;;;;5.61;100.00;101417.09;5036975;28;20127;-74
2021/11/18 01:03:35;;;;;;;33.95;16.23;;;;;;;5.58;100.00;101410.19;4999020;28;20049;-75
2021/11/18 01:06:04;;;;;;;44.30;17.00;;;;;;;5.68;100.00;101411.69;5007318;28;20053;-75
2021/11/18 01:08:34;;;;;;;38.00;17.08;;;;;;;5.61;100.00;101428.41;5014138;28;20057;-75
2021/11/18 01:11:11;;;;;;;41.55;15.93;;;;;;;5.61;100.00;101420.56;5008766;28;20067;-75
2021/11/18 01:13:42;;;;;;;40.33;16.48;;;;;;;5.71;100.00;101414.19;5012446;28;20045;-75
2021/11/18 01:16:13;;;;;;;37.33;16.17;;;;;;;5.65;100.00;101423.97;5014967;28;20042;-77
2021/11/18 01:18:43;;;;;;;41.67;18.05;;;;;;;5.62;100.00;101427.50;5039885;28;20043;-75
2021/11/18 01:21:11;;;;;;;39.10;15.85;;;;;;;5.66;100.00;101429.16;4997648;28;20043;-73
2021/11/18 01:23:42;;;;;;;41.15;15.77;;;;;;;5.60;100.00;101429.31;5018112;28;20049;-77
2021/11/18 01:26:14;;;;;;;35.03;16.67;;;;;;;5.62;100.00;101447.53;4964039;28;1044136;-74
2021/11/18 01:28:42;;;;;;;42.33;16.98;;;;;;;5.70;100.00;101438.63;5025805;28;20044;-75
2021/11/18 01:31:10;;;;;;;39.63;17.05;;;;;;;5.72;100.00;101441.19;4999511;28;20061;-75
2021/11/18 01:33:39;;;;;;;34.08;16.60;;;;;;;5.71;100.00;101431.63;5006018;28;20056;-75
2021/11/18 01:36:07;;;;;;;40.83;15.93;;;;;;;5.73;100.00;101424.63;5001280;28;20048;-75
2021/11/18 01:38:35;;;;;;;37.42;16.52;;;;;;;5.68;100.00;101434.34;5021408;28;20042;-76
2021/11/18 01:41:06;;;;;;;45.08;17.52;;;;;;;5.60;100.00;101439.75;5019733;28;20141;-75
2021/11/18 01:43:38;;;;;;;33.70;17.60;;;;;;;5.57;100.00;101443.28;4978804;28;20040;-76
2021/11/18 01:46:07;;;;;;;37.63;15.20;;;;;;;5.63;100.00;101450.13;5001094;28;20144;-76
2021/11/18 01:48:35;;;;;;;36.50;16.23;;;;;;;5.57;100.00;101455.50;5001258;28;20049;-75
2021/11/18 01:51:04;;;;;;;44.70;15.20;;;;;;;5.56;100.00;101449.41;5039058;28;20065;-74
2021/11/18 01:53:36;;;;;;;37.00;15.32;;;;;;;5.64;100.00;101451.00;5006876;28;21626;-75
2021/11/18 01:56:10;;;;;;;40.63;15.52;;;;;;;5.62;100.00;101445.78;5014997;28;20069;-76
2021/11/18 01:58:39;;;;;;;39.78;16.45;;;;;;;5.63;100.00;101452.75;5000329;28;20049;-76
2021/11/18 02:01:07;;;;;;;36.58;15.30;;;;;;;5.61;100.00;101451.06;4989987;28;20660;-76
2021/11/18 02:03:35;;;;;;;38.90;15.85;;;;;;;5.53;100.00;101456.47;5043627;28;20053;-77
2021/11/18 02:06:10;;;;;;;37.42;14.82;;;;;;;5.54;100.00;101451.22;4993114;28;20061;-76
2021/11/18 02:08:38;;;;;;;37.78;15.43;;;;;;;5.47;100.00;101464.47;5045109;28;20040;-75
2021/11/18 02:11:22;;;;;;;34.47;15.45;;;;;;;5.46;100.00;101455.78;4992166;28;20048;-76
2021/11/18 02:13:49;;;;;;;35.97;15.13;;;;;;;5.49;100.00;101460.03;5016039;28;20049;-76
2021/11/18 02:16:16;;;;;;;32.17;15.88;;;;;;;5.45;100.00;101464.50;4993480;28;20064;-76
2021/11/18 02:18:43;;;;;;;29.88;14.77;;;;;;;5.44;100.00;101467.13;5008556;28;20049;-75
2021/11/18 02:21:14;;;;;;;34.42;15.48;;;;;;;5.45;100.00;101464.50;5028730;28;20046;-74
2021/11/18 02:23:53;;;;;;;33.78;15.80;;;;;;;5.37;100.00;101476.88;5011002;28;20140;-76
2021/11/18 02:26:22;;;;;;;36.25;16.02;;;;;;;5.40;100.00;101468.97;5008632;28;20042;-76
2021/11/18 02:28:52;;;;;;;36.85;16.13;;;;;;;5.42;100.00;101472.41;4975403;28;20050;-77
2021/11/18 02:31:34;;;;;;;44.80;16.00;;;;;;;5.37;100.00;101481.25;4985865;28;20049;-76
2021/11/18 02:34:04;;;;;;;41.58;14.95;;;;;;;5.37;100.00;101476.88;5008571;28;20132;-78
2021/11/18 02:36:31;;;;;;;37.80;14.52;;;;;;;5.46;100.00;101474.06;4979798;28;20540;-75
2021/11/18 02:38:58;;;;;;;37.70;16.63;;;;;;;5.48;100.00;101480.09;5021632;28;20041;-76
2021/11/18 02:41:25;;;;;;;33.88;15.55;;;;;;;5.58;100.00;101481.59;5009453;28;20049;-76
2021/11/18 02:43:52;;;;;;;34.20;15.60;;;;;;;5.76;100.00;101475.06;4993188;28;20048;-77
2021/11/18 02:46:20;;;;;;;37.20;15.15;;;;;;;5.68;100.00;101478.75;4994979;28;20101;-76
2021/11/18 02:48:48;;;;;;;37.40;15.25;;;;;;;5.72;100.00;101477.75;4989126;28;21066;-76
2021/11/18 02:51:18;;;;;;;39.80;15.35;;;;;;;5.67;100.00;101474.41;5038737;28;20042;-75
2021/11/18 02:53:45;;;;;;;33.20;15.32;;;;;;;5.56;100.00;101472.94;4989014;28;20047;-76
2021/11/18 02:56:14;;;;;;;40.28;16.40;;;;;;;5.54;100.00;101471.25;5026334;28;20136;-74
2021/11/18 02:58:41;;;;;;;37.67;15.25;;;;;;;5.46;100.00;101478.41;4999881;28;20412;-75
2021/11/18 03:01:19;;;;;;;33.70;15.55;;;;;;;5.39;100.00;101479.44;4994303;28;20071;-75
2021/11/18 03:03:47;;;;;;;35.75;15.13;;;;;;;5.39;100.00;101485.53;4980870;28;20429;-75
2021/11/18 03:06:17;;;;;;;45.70;15.95;;;;;;;5.41;100.00;101469.84;5012055;28;20040;-75
2021/11/18 03:08:45;;;;;;;35.10;16.23;;;;;;;5.46;100.00;101481.88;4992028;28;20059;-75
2021/11/18 03:11:12;;;;;;;40.03;16.65;;;;;;;5.55;100.00;101472.97;5000245;28;20794;-75
2021/11/18 03:13:39;;;;;;;40.92;16.75;;;;;;;5.54;100.00;101484.31;5016095;28;20045;-75
2021/11/18 03:16:08;;;;;;;46.03;16.73;;;;;;;5.46;100.00;101473.19;5017579;28;20487;-75
2021/11/18 03:18:35;;;;;;;28.20;14.75;;;;;;;5.43;100.00;101473.25;5031762;28;20049;-76
2021/11/18 03:21:05;;;;;;;35.00;15.00;;;;;;;5.47;100.00;101477.53;5000178;28;20049;-77
2021/11/18 03:23:32;;;;;;;44.40;17.20;;;;;;;5.40;100.00;101463.72;5015671;28;20080;-76
2021/11/18 03:25:59;;;;;;;31.63;14.63;;;;;;;5.39;100.00;101456.81;5012904;28;20053;-76
2021/11/18 03:28:27;;;;;;;40.15;15.98;;;;;;;5.37;100.00;101461.22;4989113;28;20057;-76
2021/11/18 03:30:55;;;;;;;38.72;16.85;;;;;;;5.35;100.00;101468.22;4988371;28;20048;-77
2021/11/18 03:33:28;;;;;;;37.67;17.10;;;;;;;5.38;100.00;101462.94;5034897;28;20048;-77
2021/11/18 03:35:56;;;;;;;31.70;14.13;;;;;;;5.40;100.00;101474.19;5018883;28;20115;-76
2021/11/18 03:38:28;;;;;;;38.10;15.88;;;;;;;5.34;100.00;101469.13;5001233;28;20056;-76
2021/11/18 03:41:03;;;;;;;46.28;17.50;;;;;;;5.31;100.00;101467.47;4981711;28;20052;-75
2021/11/18 03:43:37;;;;;;;46.40;16.27;;;;;;;5.36;100.00;101471.69;4989402;28;20046;-74
2021/11/18 03:46:05;;;;;;;38.85;15.80;;;;;;;5.33;100.00;101464.78;5015602;28;20080;-74
2021/11/18 03:48:33;;;;;;;47.90;17.38;;;;;;;5.32;100.00;101458.72;5022310;28;20057;-75
2021/11/18 03:51:02;;;;;;;41.33;16.20;;;;;;;5.31;100.00;101453.50;5000092;28;20065;-74
2021/11/18 03:53:33;;;;;;;46.42;17.02;;;;;;;5.29;100.00;101470.97;4976979;28;20049;-76
2021/11/18 03:56:03;;;;;;;37.88;15.88;;;;;;;5.33;100.00;101480.47;5022358;28;20052;-76
2021/11/18 03:58:31;;;;;;;38.10;15.52;;;;;;;5.32;100.00;101486.59;5017073;28;20058;-77
2021/11/18 04:00:58;;;;;;;39.42;15.98;;;;;;;5.35;100.00;101491.72;5015449;28;20872;-75
2021/11/18 04:03:28;;;;;;;44.22;15.57;;;;;;;5.33;100.00;101473.47;5032224;28;20053;-75
2021/11/18 04:05:56;;;;;;;32.08;14.60;;;;;;;5.34;100.00;101488.25;4985222;28;20053;-76
2021/11/18 04:08:24;;;;;;;37.22;15.18;;;;;;;5.36;100.00;101501.28;5025426;28;20041;-75
2021/11/18 04:10:51;;;;;;;39.75;15.60;;;;;;;5.41;100.00;101509.88;5018045;28;20041;-77
2021/11/18 04:13:18;;;;;;;44.63;16.33;;;;;;;5.46;100.00;101505.41;5018428;28;20087;-76
2021/11/18 04:15:49;;;;;;;40.72;15.27;;;;;;;5.50;100.00;101493.13;4988165;28;20413;-76
2021/11/18 04:18:18;;;;;;;33.03;14.63;;;;;;;5.53;100.00;101496.50;5034122;22;20049;-77
2021/11/18 04:20:49;;;;;;;33.15;14.02;;;;;;;5.51;100.00;101505.28;5008507;28;20652;-75
2021/11/18 04:23:18;;;;;;;30.67;14.13;;;;;;;5.49;100.00;101501.84;5025806;28;20040;-76
2021/11/18 04:25:45;;;;;;;42.75;14.65;;;;;;;5.46;100.00;101520.22;5038988;28;20040;-75
2021/11/18 04:28:13;;;;;;;33.10;14.05;;;;;;;5.54;100.00;101508.69;5034099;28;20530;-76
2021/11/18 04:30:45;;;;;;;39.90;14.25;;;;;;;5.55;100.00;101509.53;5030954;28;20040;-75
2021/11/18 04:33:13;;;;;;;40.40;14.88;;;;;;;5.54;100.00;101503.47;5030990;28;20040;-75
2021/11/18 04:35:40;;;;;;;35.97;14.43;;;;;;;5.53;100.00;101521.75;5032008;28;20049;-75
2021/11/18 04:38:08;;;;;;;42.13;14.43;;;;;;;5.48;100.00;101519.25;5028239;28;20049;-75
2021/11/18 04:40:35;;;;;;;39.30;15.15;;;;;;;5.48;100.00;101524.47;5025898;28;20131;-75
2021/11/18 04:43:05;;;;;;;40.50;14.02;;;;;;;5.56;100.00;101519.09;5052072;28;20049;-76
2021/11/18 04:45:34;;;;;;;33.85;13.13;;;;;;;5.56;100.00;101529.53;5016628;28;20418;-75
2021/11/18 04:48:03;;;;;;;35.33;13.88;;;;;;;5.55;100.00;101526.06;5024225;28;20066;-77
2021/11/18 04:50:34;;;;;;;34.40;13.68;;;;;;;5.58;100.00;101532.94;5040196;28;20049;-77
2021/11/18 04:53:01;;;;;;;39.42;13.85;;;;;;;5.62;100.00;101513.69;5046381;28;20060;-76
2021/11/18 04:55:29;;;;;;;35.03;14.43;;;;;;;5.63;100.00;101525.00;5023496;28;20044;-75
2021/11/18 04:57:57;;;;;;;35.30;13.25;;;;;;;5.65;100.00;101523.22;5032217;28;20047;-76
2021/11/18 05:00:30;;;;;;;38.88;13.40;;;;;;;5.62;100.00;101525.91;5007247;28;20048;-78
2021/11/18 05:02:58;;;;;;;43.20;13.68;;;;;;;5.62;100.00;101518.06;5048009;28;20487;-76
2021/11/18 05:05:26;;;;;;;41.30;14.00;;;;;;;5.61;100.00;101527.66;5017222;28;20075;-73
2021/11/18 05:07:55;;;;;;;41.42;14.00;;;;;;;5.61;100.00;101524.19;5044219;28;20071;-74
2021/11/18 05:10:22;;;;;;;35.90;14.15;;;;;;;5.60;100.00;101518.13;5028636;28;20052;-76
2021/11/18 05:12:50;;;;;;;35.90;14.38;;;;;;;5.61;100.00;101526.81;5031079;28;20059;-77
2021/11/18 05:15:21;;;;;;;31.77;13.70;;;;;;;5.66;100.00;101533.63;5074359;28;20484;-75
2021/11/18 05:17:48;;;;;;;37.10;12.40;;;;;;;5.59;100.00;101526.84;5032851;28;20474;-76
2021/11/18 05:20:18;;;;;;;40.00;14.20;;;;;;;5.59;100.00;101529.47;5052776;28;20512;-75
2021/11/18 05:22:47;;;;;;;37.47;12.93;;;;;;;5.54;100.00;101521.75;5051337;28;20060;-76
2021/11/18 05:25:16;;;;;;;36.42;14.30;;;;;;;5.57;100.00;101531.25;5044504;28;20048;-77
2021/11/18 05:27:43;;;;;;;40.88;14.43;;;;;;;5.61;100.00;101527.66;5030583;28;20036;-76
2021/11/18 05:30:13;;;;;;;37.85;13.13;;;;;;;5.58;100.00;101531.22;5037102;28;20093;-75
2021/11/18 05:32:40;;;;;;;36.00;13.18;;;;;;;5.57;100.00;101526.03;5010004;28;20045;-75
2021/11/18 05:35:11;;;;;;;36.13;12.63;;;;;;;5.62;100.00;101515.47;5042156;28;20041;-75
2021/11/18 05:37:46;;;;;;;37.15;14.30;;;;;;;5.58;100.00;101528.63;5022883;28;20045;-77
2021/11/18 05:43:29;;;;;;;35.25;12.23;;;;;;;5.55;100.00;101527.81;5057571;28;20581;-75
2021/11/18 05:45:57;;;;;;;38.22;12.23;;;;;;;5.59;100.00;101530.31;5018663;28;20319;-76
2021/11/18 05:48:24;;;;;;;39.08;12.57;;;;;;;5.58;100.00;101531.22;5038755;28;20044;-76
2021/11/18 05:50:55;;;;;;;38.85;12.93;;;;;;;5.56;100.00;101539.97;5019569;28;20040;-76
2021/11/18 05:53:29;;;;;;;40.28;12.75;;;;;;;5.56;100.00;101533.00;5031970;28;20045;-75
2021/11/18 05:55:59;;;;;;;35.17;13.55;;;;;;;5.61;100.00;101545.09;5056439;28;20151;-77
2021/11/18 05:58:27;;;;;;;43.10;13.18;;;;;;;5.57;100.00;101539.94;5041206;28;20048;-77
2021/11/18 06:01:00;;;;;;;35.70;12.13;;;;;;;5.56;100.00;101538.22;5054774;28;20079;-76
2021/11/18 06:03:28;;;;;;;32.47;11.93;;;;;;;5.50;100.00;101537.53;5027202;28;20048;-76
2021/11/18 06:05:55;;;;;;;44.95;13.27;;;;;;;5.45;100.00;101540.25;5045142;28;20044;-75
2021/11/18 06:08:22;;;;;;;28.33;11.38;;;;;;;5.38;100.00;101554.31;5048595;28;20040;-76
2021/11/18 06:10:50;;;;;;;33.92;11.57;;;;;;;5.43;100.00;101552.47;5062599;28;20060;-77
2021/11/18 06:13:18;;;;;;;33.10;10.98;;;;;;;5.46;100.00;101555.00;5065456;28;20043;-78
2021/11/18 06:15:46;;;;;;;31.00;11.40;;;;;;;5.40;100.00;101552.50;5039859;28;20490;-77
2021/11/18 06:18:14;;;;;;;34.22;12.52;;;;;;;5.41;100.00;101556.88;5043280;28;20506;-77
2021/11/18 06:20:43;;;;;;;31.30;11.70;;;;;;;5.37;100.00;101547.38;5027506;28;20052;-75
2021/11/18 06:23:12;;;;;;;35.63;11.20;;;;;;;5.39;100.00;101539.50;5048914;28;20048;-76
2021/11/18 06:25:41;;;;;;;39.33;12.40;;;;;;;5.36;100.00;101550.00;5037459;28;20140;-76
2021/11/18 06:28:15;;;;;;;35.35;11.27;;;;;;;5.46;100.00;101547.19;5059135;28;20143;-76
2021/11/18 06:30:57;;;;;;;30.02;11.93;;;;;;;5.51;100.00;101557.50;5053998;28;20056;-76
2021/11/18 06:33:25;;;;;;;43.47;12.07;;;;;;;5.62;100.00;101565.09;5061301;28;20151;-74
2021/11/18 06:35:52;;;;;;;44.03;10.90;;;;;;;5.63;100.00;101569.41;5044214;28;20502;-75
2021/11/18 06:38:38;;;;;;;33.72;11.20;;;;;;;5.54;100.00;101570.50;5042007;28;20056;-76
2021/11/18 06:41:06;;;;;;;28.77;10.55;;;;;;;5.62;100.00;101580.75;5042139;28;20049;-77
2021/11/18 06:43:36;;;;;;;35.50;10.07;;;;;;;5.68;100.00;101567.59;5035756;28;20410;-77
2021/11/18 06:46:04;;;;;;;36.88;9.75;;;;;;;5.62;100.00;101572.94;5060495;28;20064;-74
2021/11/18 06:48:32;;;;;;;33.55;10.43;;;;;;;5.67;100.00;101584.13;5026898;28;20029;-76
2021/11/18 06:51:07;;;;;;;21.35;8.73;;;;;;;5.74;100.00;101576.13;5059744;28;20032;-78
2021/11/18 06:53:36;;;;;;;29.17;9.77;;;;;;;5.80;100.00;101583.78;5061629;28;20044;-77
2021/11/18 06:56:04;;;;;;;29.63;9.82;;;;;;;5.89;100.00;101598.41;5033710;28;20080;-75
2021/11/18 06:58:32;;;;;;;34.65;9.65;;;;;;;5.85;100.00;101591.53;5043152;28;20060;-76
2021/11/18 07:01:01;;;;;;;28.02;10.00;;;;;;;5.83;100.00;101593.34;5056872;28;20487;-75
2021/11/18 07:03:32;;;;;;;36.22;10.07;;;;;;;5.83;100.00;101598.56;5057506;28;20061;-77
2021/11/18 07:06:00;;;;;;;31.02;9.88;;;;;;;5.85;100.00;101601.97;5043079;28;20044;-76
2021/11/18 07:08:27;;;;;;;30.38;9.73;;;;;;;5.85;100.00;101591.53;5038821;28;20404;-76
2021/11/18 07:10:54;;;;;;;33.65;9.68;;;;;;;5.88;100.00;101588.00;5052086;28;20057;-76
2021/11/18 07:13:24;;;;;;;32.00;10.02;;;;;;;5.95;100.00;101589.59;5060636;28;20040;-77
2021/11/18 07:15:52;;;;;;;31.88;10.35;;;;;;;6.12;100.00;101584.78;5041806;28;20059;-76
2021/11/18 07:18:23;;;;;;;36.08;8.68;;;;;;;6.15;100.00;101589.97;5056741;28;20057;-76
2021/11/18 07:20:53;;;;;;;33.97;9.93;;;;;;;6.14;100.00;101598.72;5061985;28;20045;-76
2021/11/18 07:23:23;;;;;;;26.52;8.68;;;;;;;6.24;100.00;101591.47;5058196;28;20049;-75
2021/11/18 07:25:55;;;;;;;26.00;8.25;;;;;;;6.36;100.00;101598.16;5043061;28;20044;-76
2021/11/18 07:28:24;;;;;;;30.83;9.45;;;;;;;6.47;100.00;101599.59;5056584;28;20056;-75
2021/11/18 07:30:53;;;;;;;38.60;9.25;;;;;;;6.52;100.00;101604.69;5033784;28;20044;-76
2021/11/18 07:33:22;;;;;;;32.47;8.57;;;;;;;6.61;100.00;101612.31;5056677;28;20049;-77
2021/11/18 07:36:14;;;;;;;30.80;8.90;;;;;;;6.66;100.00;101606.94;5021645;28;20048;-76
2021/11/18 07:38:42;;;;;;;37.10;8.43;;;;;;;6.73;100.00;101611.13;5056215;28;20155;-75
2021/11/18 07:41:09;;;;;;;29.27;9.25;;;;;;;6.69;100.00;101619.97;5041289;28;20052;-76
2021/11/18 07:43:40;;;;;;;25.92;8.77;;;;;;;6.71;100.00;101621.66;5045891;28;20166;-77
2021/11/18 07:46:27;;;;;;;26.38;8.57;;;;;;;6.78;100.00;101615.31;5042959;28;20070;-76
2021/11/18 07:48:56;;;;;;;27.23;7.75;;;;;;;6.83;100.00;101621.28;5056359;28;20065;-76
2021/11/18 07:51:24;;;;;;;26.45;8.10;;;;;;;6.85;100.00;101614.28;5037274;28;20403;-75
2021/11/18 07:53:52;;;;;;;30.20;9.52;;;;;;;6.96;100.00;101626.19;5039228;28;20057;-77
2021/11/18 07:56:21;;;;;;;30.67;9.25;;;;;;;6.97;100.00;101627.91;5049433;28;20054;-75
2021/11/18 07:58:48;;;;;;;26.33;9.20;;;;;;;7.01;100.00;101624.31;5036658;28;20055;-75
2021/11/18 08:01:16;;;;;;;36.78;8.52;;;;;;;7.00;100.00;101622.59;5064733;28;20049;-78
2021/11/18 08:03:43;;;;;;;27.30;8.60;;;;;;;7.10;100.00;101630.13;5047794;28;20056;-76
2021/11/18 08:06:14;;;;;;;21.98;8.20;;;;;;;7.12;100.00;101624.03;5043117;28;20087;-77
2021/11/18 08:08:51;;;;;;;23.88;7.97;;;;;;;7.05;100.00;101639.03;5055162;28;20048;-74
2021/11/18 08:11:26;;;;;;;33.25;8.55;;;;;;;7.01;100.00;101624.31;5054928;28;20499;-76
2021/11/18 08:13:53;;;;;;;27.83;7.97;;;;;;;7.02;100.00;101623.41;5036022;28;20045;-76
2021/11/18 08:16:21;;;;;;;26.10;8.15;;;;;;;7.04;100.00;101625.09;5031604;28;20083;-75
2021/11/18 08:18:49;;;;;;;25.95;8.43;;;;;;;7.08;100.00;101636.34;5061537;28;20419;-74
2021/11/18 08:21:16;;;;;;;27.38;8.57;;;;;;;7.07;100.00;101634.63;5062436;28;20032;-76
2021/11/18 08:23:44;;;;;;;26.88;7.50;;;;;;;7.11;100.00;101636.22;5059750;28;20064;-74
2021/11/18 08:26:14;;;;;;;27.25;9.32;;;;;;;7.13;100.00;101625.72;5048641;28;20040;-75
2021/11/18 08:28:42;;;;;;;34.45;9.65;;;;;;;7.09;100.00;101630.19;5063339;28;20052;-76
2021/11/18 08:31:11;;;;;;;31.95;8.65;;;;;;;7.12;100.00;101631.88;5056334;28;20503;-75
2021/11/18 08:33:39;;;;;;;27.08;8.68;;;;;;;7.08;100.00;101637.19;5051954;28;20859;-76
2021/11/18 08:36:07;;;;;;;33.45;8.65;;;;;;;7.09;100.00;101641.50;5061252;28;20055;-76
2021/11/18 08:38:34;;;;;;;30.27;8.70;;;;;;;7.15;100.00;101645.72;5057140;28;20066;-80
2021/11/18 08:41:05;;;;;;;27.90;9.38;;;;;;;7.17;100.00;101636.06;5029507;28;20151;-76
2021/11/18 08:43:35;;;;;;;27.05;8.80;;;;;;;7.23;100.00;101650.75;5045340;28;20171;-77
2021/11/18 08:46:10;;;;;;;27.48;8.43;;;;;;;7.24;100.00;101652.44;5035753;28;20131;-75
2021/11/18 08:48:39;;;;;;;32.47;9.07;;;;;;;7.25;100.00;101643.69;5058381;28;20134;-76
2021/11/18 08:51:19;;;;;;;28.17;9.52;;;;;;;7.29;100.00;101650.56;5061062;28;20049;-75
2021/11/18 08:53:50;;;;;;;29.02;7.85;;;;;;;7.29;100.00;101646.16;5065459;28;20185;-77
2021/11/18 08:56:19;;;;;;;32.55;9.75;;;;;;;7.34;100.00;101651.31;5070878;28;20036;-75
2021/11/18 08:58:51;;;;;;;28.08;9.02;;;;;;;7.42;100.00;101644.06;5065861;28;20049;-75
2021/11/18 09:01:32;;;;;;;35.25;10.13;;;;;;;7.44;100.00;101651.91;5051730;28;20047;-75
2021/11/18 09:04:00;;;;;;;24.48;7.90;;;;;;;7.49;100.00;101655.22;5049044;28;20123;-76
2021/11/18 09:06:28;;;;;;;30.52;8.75;;;;;;;7.50;100.00;101664.78;5049463;28;20394;-76
2021/11/18 09:08:55;;;;;;;40.72;9.38;;;;;;;7.41;100.00;101655.44;5041668;28;20049;-78
2021/11/18 09:11:23;;;;;;;36.78;10.15;;;;;;;7.44;100.00;101651.91;5068123;28;20143;-75
2021/11/18 09:13:52;;;;;;;31.58;10.73;;;;;;;7.46;100.00;101647.44;5066733;28;20045;-76
2021/11/18 09:16:21;;;;;;;28.67;9.15;;;;;;;7.48;100.00;101648.28;5029539;28;20051;-76
2021/11/18 09:18:49;;;;;;;33.13;9.35;;;;;;;7.51;100.00;101651.66;5065694;28;20036;-74
2021/11/18 09:21:20;;;;;;;39.33;9.63;;;;;;;7.52;100.00;101653.38;5067919;28;20051;-76
2021/11/18 09:23:54;;;;;;;32.55;9.25;;;;;;;7.58;100.00;101660.19;5058070;28;20049;-76
2021/11/18 09:26:24;;;;;;;41.70;11.68;;;;;;;7.56;100.00;101664.59;5068259;28;20040;-76
2021/11/18 09:28:51;;;;;;;34.70;10.40;;;;;;;7.60;100.00;101667.09;5048117;28;20048;-76
2021/11/18 09:31:22;;;;;;;30.20;9.80;;;;;;;7.65;100.00;101655.63;5064997;28;20028;-75
2021/11/18 09:33:50;;;;;;;34.28;10.15;;;;;;;7.68;100.00;101660.78;5065620;28;20078;-78
2021/11/18 09:36:19;;;;;;;32.42;9.95;;;;;;;7.74;100.00;101657.94;5048150;28;20067;-76
2021/11/18 09:38:47;;;;;;;27.90;9.52;;;;;;;7.73;100.00;101648.38;5059409;28;20048;-77
2021/11/18 09:41:26;;;;;;;36.88;10.43;;;;;;;7.74;100.00;101647.47;5051358;28;20399;-74
2021/11/18 09:44:28;;;;;;;34.13;10.10;;;;;;;7.84;100.00;101636.66;5082993;28;20167;-76
2021/11/18 09:47:14;;;;;;;31.52;9.35;;;;;;;7.84;100.00;101638.44;5026173;28;20045;-79
2021/11/18 09:49:59;;;;;;;35.90;10.60;;;;;;;7.81;100.00;101642.00;5055930;28;20052;-76
2021/11/18 09:52:41;;;;;;;35.88;10.02;;;;;;;7.87;100.00;101641.78;5027792;28;20131;-77
2021/11/18 09:55:59;;;;;;;33.15;10.02;;;;;;;7.87;100.00;101635.69;5061039;28;20688;-75
2021/11/18 09:58:35;;;;;;;35.85;9.65;;;;;;;7.97;100.00;101642.38;5036872;28;20941;-74
2021/11/18 10:01:35;;;;;;;30.40;9.55;;;;;;;7.96;100.00;101630.16;5067877;28;20136;-76
2021/11/18 10:04:42;;;;;;;30.73;9.98;;;;;;;7.96;100.00;101631.94;5047624;28;20060;-77
2021/11/18 10:07:12;;;;;;;;;;;;;;;8.04;100.00;101640.41;5056900;28;20061;-74
2021/11/18 10:10:16;;;;;;;40.67;9.30;;;;;;;8.03;100.00;101641.31;5038534;28;19929;-76
2021/11/18 10:13:05;;;;;;;31.13;10.82;;;;;;;8.08;100.00;101645.50;5037628;28;20052;-78
2021/11/18 10:15:48;;;;;;;42.60;10.88;;;;;;;8.09;100.00;101638.50;5063153;28;20056;-77
2021/11/18 10:18:18;;;;;;;42.80;10.73;;;;;;;8.12;100.00;101623.53;5064168;28;20057;-75
2021/11/18 10:20:48;;;;;;;29.67;9.18;;;;;;;8.17;100.00;101635.63;5045874;28;20036;-76
2021/11/18 10:23:20;;;;;;;39.92;10.52;;;;;;;8.35;100.00;101638.50;5049624;28;20052;-78
2021/11/18 10:25:52;;;;;;;40.90;9.63;;;;;;;8.51;100.00;101622.25;5064109;28;20049;-75
2021/11/18 10:28:23;;;;;;;33.25;9.20;;;;;;;8.49;100.00;101638.06;5063027;28;20075;-74
2021/11/18 10:31:28;;;;;;;34.35;9.93;;;;;;;8.49;100.00;101642.47;5056634;28;20079;-76
2021/11/18 10:34:13;;;;;;;29.55;9.63;;;;;;;8.46;100.00;101647.81;5054744;28;20053;-78
2021/11/18 10:37:00;;;;;;;37.72;10.40;;;;;;;8.59;100.00;101649.09;5054230;28;20128;-76
2021/11/18 10:39:38;;;;;;;28.75;9.20;;;;;;;8.63;100.00;101638.44;5060200;28;20054;-76
2021/11/18 10:42:24;;;;;;;32.85;8.80;;;;;;;8.63;100.00;101648.94;5052980;28;20558;-78
2021/11/18 10:45:04;;;;;;;43.00;11.83;;;;;;;8.67;100.00;101654.09;5043940;28;20055;-75
2021/11/18 10:47:56;;;;;;;40.17;9.07;;;;;;;8.70;100.00;101656.63;5032043;28;20471;-74
2021/11/18 10:50:38;;;;;;;35.55;9.35;;;;;;;8.67;100.00;101651.47;5041004;28;20124;-75
2021/11/18 10:53:20;;;;;;;40.75;10.93;;;;;;;8.63;100.00;101638.44;5046847;28;20368;-77
2021/11/18 10:56:06;;;;;;;34.58;10.45;;;;;;;8.57;100.00;101637.81;5039501;28;20486;-75
2021/11/18 10:58:44;;;;;;;37.10;9.63;;;;;;;8.73;100.00;101640.75;5067767;28;20040;-77
2021/11/18 11:01:20;;;;;;;40.72;10.00;;;;;;;8.79;100.00;101648.44;5066748;28;20043;-76
2021/11/18 11:03:48;;;;;;;34.33;9.45;;;;;;;8.82;100.00;101624.66;5063508;28;20480;-75
2021/11/18 11:06:32;;;;;;;28.40;8.57;;;;;;;8.84;100.00;101626.34;5057586;28;20514;-76
2021/11/18 11:09:08;;;;;;;33.78;9.90;;;;;;;8.82;100.00;101611.53;5053338;28;20036;-77
2021/11/18 11:11:51;;;;;;;26.45;8.93;;;;;;;8.97;100.00;101612.78;5064801;28;20418;-76
2021/11/18 11:14:28;;;;;;;28.77;8.10;;;;;;;9.07;100.00;101609.75;5061840;28;20379;-76
2021/11/18 11:17:29;;;;;;;29.52;9.32;;;;;;;9.22;100.00;101610.94;5039995;28;20117;-76
2021/11/18 11:20:19;;;;;;;34.60;8.63;;;;;;;9.31;100.00;101601.84;5055926;28;20045;-74
2021/11/18 11:23:07;;;;;;;30.50;8.38;;;;;;;9.19;100.00;101611.06;5027950;28;20045;-75
2021/11/18 11:25:55;;;;;;;32.50;8.73;;;;;;;9.22;99.86;101610.94;5042199;28;20048;-76
2021/11/18 11:28:42;;;;;;;31.77;9.63;;;;;;;9.45;99.66;101610.06;5067138;28;20083;-75
2021/11/18 11:31:39;;;;;;;29.50;8.68;;;;;;;9.49;97.46;101588.00;5046760;28;20036;-76
2021/11/18 11:34:20;;;;;;;25.95;7.35;;;;;;;9.61;97.91;101584.91;5056721;28;20155;-76
2021/11/18 11:36:53;;;;;;;30.70;9.80;;;;;;;9.49;97.40;101584.53;5065082;28;20056;-77